Time;durP1;ratioP1;P1;durP2;ratioP2;P2;SDS_P1;SDS_P2;PMS_P1;PMS_P2;Temp;Humidity;BMP_temperature;BMP_pressure;BME280_temperature;BME280_humidity;BME280_pressure;Samples;Min_cycle;Max_cycle;Signal;HPM_P1;HPM_P2
2021/04/14 00:02:18;;;;;;;3.83;3.30;;;;;;;1.81;70.15;151833.28;4999217;28;20807;-77
2021/04/14 00:04:54;;;;;;;3.60;2.77;;;;;;;1.80;72.55;151829.44;5028091;28;20455;-78
2021/04/14 00:07:29;;;;;;;4.50;2.87;;;;;;;1.73;72.38;151812.72;5029079;28;21131;-77
2021/04/14 00:10:06;;;;;;;3.33;2.77;;;;;;;1.72;75.11;151808.88;5032453;28;20451;-77
2021/04/14 00:12:42;;;;;;;3.37;2.93;;;;;;;1.71;72.69;151807.59;5014541;28;20436;-77
2021/04/14 00:15:20;;;;;;;3.80;3.37;;;;;;;1.70;72.95;151805.00;4999244;28;20471;-77
2021/04/14 00:17:55;;;;;;;3.60;2.93;;;;;;;1.64;72.73;151788.31;5014337;28;20852;-77
2021/04/14 00:20:31;;;;;;;3.23;2.97;;;;;;;1.66;69.35;151793.44;5027762;28;20451;-77
2021/04/14 00:23:07;;;;;;;3.20;2.47;;;;;;;1.68;68.53;151799.88;5033852;28;20968;-77
2021/04/14 00:25:44;;;;;;;3.40;2.60;;;;;;;1.78;68.21;151824.25;5033841;28;20478;-77
2021/04/14 00:28:21;;;;;;;3.10;2.80;;;;;;;1.71;70.17;151806.28;5034313;28;20918;-77
2021/04/14 00:30:57;;;;;;;4.00;3.10;;;;;;;1.61;70.13;151780.59;5034350;28;20914;-77
2021/04/14 00:33:32;;;;;;;3.87;2.90;;;;;;;1.53;70.50;151761.34;5024799;28;20448;-77
2021/04/14 00:36:08;;;;;;;4.80;2.67;;;;;;;1.46;71.47;151743.31;5032188;28;20816;-78
2021/04/14 00:38:44;;;;;;;4.70;3.27;;;;;;;1.45;69.74;151739.47;5032467;28;20467;-77
2021/04/14 00:41:19;;;;;;;4.80;2.60;;;;;;;1.71;67.34;151806.28;5017442;28;20447;-77
2021/04/14 00:43:54;;;;;;;4.00;2.97;;;;;;;1.93;66.82;151861.56;5018292;28;20443;-77
2021/04/14 00:46:30;;;;;;;3.37;2.93;;;;;;;1.99;66.35;151878.25;5013302;28;20567;-77
2021/04/14 00:49:05;;;;;;;2.50;2.17;;;;;;;2.04;66.15;151889.84;5014004;28;20914;-78
2021/04/14 00:51:42;;;;;;;3.97;2.53;;;;;;;2.15;65.25;151919.41;4998804;28;20484;-77
2021/04/14 00:54:17;;;;;;;3.13;2.27;;;;;;;2.20;65.29;151930.94;5017003;28;20463;-78
2021/04/14 00:56:52;;;;;;;4.23;2.80;;;;;;;2.19;67.07;151929.72;5033044;28;20918;-78
2021/04/14 00:59:28;;;;;;;3.70;2.70;;;;;;;2.16;67.04;151920.69;5033378;28;20475;-78
2021/04/14 01:02:04;;;;;;;6.07;3.30;;;;;;;2.07;67.05;151898.81;5018209;28;20829;-78
2021/04/14 01:04:40;;;;;;;3.90;2.53;;;;;;;1.91;69.18;151857.69;5033329;28;20451;-78
2021/04/14 01:07:16;;;;;;;3.27;2.50;;;;;;;1.78;68.29;151824.25;5051196;28;20416;-78
2021/04/14 01:09:50;;;;;;;3.50;2.40;;;;;;;1.75;68.82;151816.56;5033679;28;20834;-78
2021/04/14 01:12:25;;;;;;;4.38;2.90;;;;;;;1.71;68.39;151806.28;5025954;28;20448;-78
2021/04/14 01:15:01;;;;;;;3.30;2.80;;;;;;;1.54;68.99;151763.88;5017413;28;20202;-77
2021/04/14 01:17:36;;;;;;;5.43;3.57;;;;;;;1.44;69.70;151738.19;5022876;28;20447;-77
2021/04/14 01:20:12;;;;;;;3.67;2.87;;;;;;;1.35;70.01;151713.78;5026686;28;20447;-77
2021/04/14 01:22:48;;;;;;;3.03;2.50;;;;;;;1.28;70.58;151695.78;5039244;28;20474;-78
2021/04/14 01:25:26;;;;;;;3.57;2.97;;;;;;;1.22;71.56;151681.63;5033966;28;20546;-78
2021/04/14 01:28:03;;;;;;;5.40;3.30;;;;;;;1.18;71.78;151671.38;5033046;28;20448;-78
2021/04/14 01:30:38;;;;;;;5.53;3.33;;;;;;;1.13;71.78;151659.84;5033208;28;20550;-77
2021/04/14 01:33:14;;;;;;;3.00;2.60;;;;;;;1.06;71.22;151640.56;5033886;28;20443;-78
2021/04/14 01:35:50;;;;;;;3.80;2.80;;;;;;;0.99;71.58;151622.56;5028852;28;20451;-78
2021/04/14 01:38:26;;;;;;;5.43;3.10;;;;;;;0.92;70.70;151605.91;5009678;28;20230;-77
2021/04/14 01:41:02;;;;;;;3.30;2.63;;;;;;;0.86;70.99;151590.47;5033276;28;20853;-78
2021/04/14 01:43:37;;;;;;;4.97;3.30;;;;;;;0.82;71.87;151580.16;5032262;28;20506;-77
2021/04/14 01:46:12;;;;;;;3.90;2.87;;;;;;;0.79;72.31;151571.22;5022003;28;20940;-78
2021/04/14 01:48:48;;;;;;;3.67;3.17;;;;;;;0.72;74.10;151553.22;5013255;28;20444;-77
2021/04/14 01:51:23;;;;;;;4.27;3.10;;;;;;;0.69;73.51;151546.78;5031340;28;20432;-77
2021/04/14 01:53:59;;;;;;;4.87;4.23;;;;;;;0.91;73.96;151603.31;5030739;28;20479;-77
2021/04/14 01:56:35;;;;;;;4.33;3.80;;;;;;;0.93;74.34;151608.44;5032804;28;20435;-77
2021/04/14 01:59:11;;;;;;;5.63;4.23;;;;;;;0.92;74.12;151605.91;5016333;28;20471;-77
2021/04/14 02:01:46;;;;;;;6.47;4.73;;;;;;;0.94;74.99;151609.72;4997811;28;20460;-78
2021/04/14 02:04:21;;;;;;;4.33;3.80;;;;;;;0.89;74.50;151598.19;5032168;28;20447;-78
2021/04/14 02:06:56;;;;;;;5.97;4.03;;;;;;;0.86;74.88;151589.19;5032506;28;20446;-77
2021/04/14 02:09:32;;;;;;;6.00;4.70;;;;;;;0.84;74.91;151584.06;5032345;28;20435;-77
2021/04/14 02:12:09;;;;;;;5.17;4.50;;;;;;;0.76;77.35;151564.81;5031866;28;20439;-77
2021/04/14 02:14:44;;;;;;;5.20;4.70;;;;;;;0.59;76.13;151521.13;5017002;28;20447;-77
2021/04/14 02:17:19;;;;;;;6.60;4.87;;;;;;;0.51;75.97;151500.56;5012490;28;20443;-77
2021/04/14 02:19:54;;;;;;;5.90;5.30;;;;;;;0.44;76.55;151482.63;5029067;28;20447;-76
2021/04/14 02:22:29;;;;;;;4.97;4.47;;;;;;;0.38;76.72;151467.19;5031732;28;20550;-77
2021/04/14 02:25:08;;;;;;;5.50;4.60;;;;;;;0.34;76.87;151456.97;5026233;28;20899;-77
2021/04/14 02:27:43;;;;;;;8.00;4.10;;;;;;;0.29;75.34;151445.38;5012600;28;20444;-77
2021/04/14 02:30:20;;;;;;;4.83;3.60;;;;;;;0.26;78.86;151437.72;5011278;28;20929;-77
2021/04/14 02:32:56;;;;;;;4.80;4.00;;;;;;;0.19;77.52;151419.72;5012534;28;20523;-77
2021/04/14 02:35:31;;;;;;;4.13;3.67;;;;;;;0.14;78.95;151405.59;5014513;28;20805;-76
2021/04/14 02:38:07;;;;;;;4.80;3.80;;;;;;;0.08;76.54;151390.22;5029508;28;20427;-77
2021/04/14 02:40:43;;;;;;;6.17;3.80;;;;;;;0.01;80.01;151373.53;5014860;28;20447;-76
2021/04/14 02:43:19;;;;;;;3.73;3.23;;;;;;;-0.06;78.10;151356.88;5031071;28;20459;-76
2021/04/14 02:45:54;;;;;;;5.10;3.28;;;;;;;-0.08;78.51;151351.69;5031811;28;20446;-77
2021/04/14 02:48:29;;;;;;;6.63;3.10;;;;;;;-0.05;78.06;151359.41;5030785;28;20530;-77
2021/04/14 02:51:05;;;;;;;3.50;3.20;;;;;;;-0.04;77.45;151361.97;5031363;28;20454;-76
2021/04/14 02:53:40;;;;;;;4.00;3.40;;;;;;;-0.03;76.58;151364.53;5033190;28;20467;-77
2021/04/14 02:56:16;;;;;;;5.30;3.60;;;;;;;-0.02;77.08;151367.09;5031982;28;20450;-77
2021/04/14 02:58:51;;;;;;;5.43;3.10;;;;;;;0.06;76.80;151385.06;5031652;28;20514;-77
2021/04/14 03:01:27;;;;;;;5.87;2.70;;;;;;;0.11;78.41;151397.94;5021418;28;20812;-77
2021/04/14 03:04:02;;;;;;;3.60;2.93;;;;;;;0.14;77.57;151406.88;5031305;28;20435;-76
2021/04/14 03:06:38;;;;;;;4.53;3.40;;;;;;;0.22;78.97;151427.41;5016449;28;20462;-77
2021/04/14 03:09:13;;;;;;;4.10;3.57;;;;;;;0.24;78.67;151431.28;5031329;28;20458;-76
2021/04/14 03:11:49;;;;;;;5.10;3.47;;;;;;;0.29;79.03;151444.13;5031488;28;20873;-77
2021/04/14 03:14:24;;;;;;;4.57;3.00;;;;;;;0.31;78.93;151449.25;5031380;28;20438;-76
2021/04/14 03:17:00;;;;;;;4.20;3.10;;;;;;;0.27;76.48;151438.97;5032140;28;20440;-76
2021/04/14 03:19:35;;;;;;;6.40;2.73;;;;;;;0.24;76.58;151432.53;5015720;28;20451;-76
2021/04/14 03:22:11;;;;;;;3.60;3.17;;;;;;;0.21;76.64;151423.59;5031487;28;20463;-77
2021/04/14 03:24:46;;;;;;;4.00;3.10;;;;;;;0.18;78.21;151415.88;5031318;28;20447;-77
2021/04/14 03:27:22;;;;;;;3.83;3.43;;;;;;;0.15;77.16;151409.47;5017388;28;20446;-76
2021/04/14 03:29:57;;;;;;;4.93;3.50;;;;;;;0.10;76.78;151395.34;5029039;28;20440;-77
2021/04/14 03:32:32;;;;;;;5.27;3.60;;;;;;;0.04;78.40;151381.22;4996814;28;20440;-77
2021/04/14 03:35:12;;;;;;;3.40;3.10;;;;;;;-0.01;77.40;151368.41;5001260;28;20451;-76
2021/04/14 03:37:47;;;;;;;3.57;3.27;;;;;;;-0.06;77.65;151356.88;5021369;28;20445;-76
2021/04/14 03:40:22;;;;;;;4.90;3.20;;;;;;;-0.11;78.28;151342.75;5024552;28;20440;-76
2021/04/14 03:42:58;;;;;;;6.30;4.63;;;;;;;-0.15;77.27;151333.75;5020728;28;20475;-77
2021/04/14 03:45:37;;;;;;;4.50;3.30;;;;;;;-0.17;77.62;151328.63;5019500;28;20444;-77
2021/04/14 03:48:13;;;;;;;4.63;3.27;;;;;;;-0.21;79.43;151318.34;5019376;28;20886;-77
2021/04/14 03:50:48;;;;;;;4.57;3.20;;;;;;;-0.24;78.35;151310.63;5032883;28;20815;-76
2021/04/14 03:53:27;;;;;;;4.73;3.20;;;;;;;-0.27;77.90;151301.69;5002307;28;20471;-76
2021/04/14 03:56:05;;;;;;;8.10;3.30;;;;;;;-0.30;78.41;151295.28;5014708;28;20456;-77
2021/04/14 03:58:43;;;;;;;3.17;2.87;;;;;;;-0.26;77.56;151305.50;5018483;28;20476;-76
2021/04/14 04:01:21;;;;;;;6.00;3.73;;;;;;;-0.23;78.79;151313.22;5008081;28;20451;-77
2021/04/14 04:03:57;;;;;;;5.10;3.63;;;;;;;-0.18;77.56;151326.03;5012337;28;20523;-77
2021/04/14 04:06:32;;;;;;;4.33;3.30;;;;;;;-0.25;76.84;151308.09;5031200;28;20448;-77
2021/04/14 04:09:07;;;;;;;4.17;3.43;;;;;;;-0.17;79.21;151327.34;5024200;28;20440;-77
2021/04/14 04:11:43;;;;;;;7.43;3.57;;;;;;;-0.19;77.96;151322.22;5023026;28;20538;-76
2021/04/14 04:14:19;;;;;;;3.70;3.37;;;;;;;-0.25;78.09;151306.81;5018007;28;20443;-77
2021/04/14 04:16:54;;;;;;;6.20;3.93;;;;;;;-0.27;78.53;151302.97;5009240;28;20459;-77
2021/04/14 04:19:29;;;;;;;4.00;3.60;;;;;;;-0.32;79.23;151290.09;5027820;28;20444;-77
2021/04/14 04:22:04;;;;;;;4.80;4.00;;;;;;;-0.39;79.09;151272.16;5014231;28;20530;-77
2021/04/14 04:24:40;;;;;;;6.23;4.77;;;;;;;-0.44;80.24;151258.03;5014416;28;20898;-76
2021/04/14 04:27:15;;;;;;;4.80;3.77;;;;;;;-0.48;81.04;151249.09;5013909;28;20428;-77
2021/04/14 04:29:51;;;;;;;8.63;4.17;;;;;;;-0.50;81.12;151243.94;4998949;28;20455;-77
2021/04/14 04:32:26;;;;;;;4.87;4.43;;;;;;;-0.57;83.38;151226.00;4999565;28;20436;-77
2021/04/14 04:35:01;;;;;;;6.03;5.10;;;;;;;-0.58;82.29;151223.41;5015536;28;20448;-77
2021/04/14 04:37:36;;;;;;;6.17;4.47;;;;;;;-0.58;82.70;151223.41;5048971;28;20782;-77
2021/04/14 04:40:12;;;;;;;7.80;4.20;;;;;;;-0.58;82.73;151222.16;5017174;28;20454;-77
2021/04/14 04:42:48;;;;;;;7.20;5.07;;;;;;;-0.58;82.69;151223.41;5017835;28;20942;-77
2021/04/14 04:45:26;;;;;;;8.43;5.70;;;;;;;-0.61;83.04;151217.00;5021209;28;20447;-77
2021/04/14 04:48:02;;;;;;;7.93;6.23;;;;;;;-0.56;84.49;151228.59;5024916;28;20441;-77
2021/04/14 04:50:37;;;;;;;7.10;6.40;;;;;;;-0.58;83.69;151222.16;5020660;28;20468;-77
2021/04/14 04:53:15;;;;;;;8.20;7.17;;;;;;;-0.56;85.21;151228.59;5028355;27;20434;-77
2021/04/14 04:55:50;;;;;;;8.07;6.80;;;;;;;-0.55;86.33;151229.81;5018747;28;20551;-76
2021/04/14 04:58:26;;;;;;;8.43;6.67;;;;;;;-0.53;87.43;151235.00;5036885;28;20855;-77
2021/04/14 05:01:02;;;;;;;9.70;7.00;;;;;;;-0.52;87.06;151238.81;5014097;28;20574;-76
2021/04/14 05:03:37;;;;;;;8.00;7.07;;;;;;;-0.50;86.01;151243.94;5021345;28;20510;-77
2021/04/14 05:06:12;;;;;;;10.23;6.67;;;;;;;-0.49;84.30;151246.53;5090756;28;20459;-77
2021/04/14 05:08:48;;;;;;;10.33;7.40;;;;;;;-0.44;84.00;151259.34;5015608;28;20475;-77
2021/04/14 05:11:23;;;;;;;7.97;6.53;;;;;;;-0.38;83.87;151274.75;5040290;28;20443;-76
2021/04/14 05:13:58;;;;;;;6.70;6.00;;;;;;;-0.28;83.64;151300.41;5029963;28;20447;-77
2021/04/14 05:16:34;;;;;;;7.80;6.43;;;;;;;-0.14;83.12;151335.03;5006161;28;20468;-77
2021/04/14 05:19:09;;;;;;;10.47;7.23;;;;;;;-0.06;84.43;151355.56;5028725;28;20948;-76
2021/04/14 05:21:44;;;;;;;10.57;7.07;;;;;;;0.12;84.60;151400.47;5028450;28;20442;-76
2021/04/14 05:24:19;;;;;;;6.63;5.93;;;;;;;0.15;85.07;151408.19;5011702;28;20918;-77
2021/04/14 05:26:54;;;;;;;5.67;4.53;;;;;;;0.22;84.79;151426.13;5005013;28;20554;-77
2021/04/14 05:29:30;;;;;;;4.70;4.03;;;;;;;0.26;83.35;151436.41;5018938;28;21282;-77
2021/04/14 05:32:07;;;;;;;5.70;4.30;;;;;;;0.40;82.28;151473.63;5011647;28;20926;-77
2021/04/14 05:34:42;;;;;;;6.10;4.70;;;;;;;0.66;80.18;151539.13;4997672;28;20436;-76
2021/04/14 05:37:17;;;;;;;13.23;7.60;;;;;;;0.84;81.24;151585.34;5023748;28;20455;-77
2021/04/14 05:39:53;;;;;;;8.00;6.70;;;;;;;1.04;80.22;151636.69;5028690;28;20455;-76
2021/04/14 05:42:28;;;;;;;10.03;8.40;;;;;;;1.27;78.88;151693.22;5029761;28;20555;-77
2021/04/14 05:45:04;;;;;;;8.60;7.70;;;;;;;1.47;78.38;151744.59;5015443;28;20823;-77
2021/04/14 05:47:39;;;;;;;8.97;7.30;;;;;;;1.68;77.12;151798.56;5031102;28;20483;-76
2021/04/14 05:50:17;;;;;;;8.37;7.20;;;;;;;1.92;75.76;151858.97;5031614;28;20439;-76
2021/04/14 05:52:52;;;;;;;8.70;6.40;;;;;;;2.16;74.07;151921.97;5030216;28;20538;-77
2021/04/14 05:55:28;;;;;;;10.00;7.50;;;;;;;2.27;74.54;151948.97;4994790;28;20452;-76
2021/04/14 05:58:03;;;;;;;11.77;8.30;;;;;;;2.32;74.25;151963.13;5010365;28;20542;-77
2021/04/14 06:00:38;;;;;;;9.23;6.83;;;;;;;2.47;73.74;152001.69;5039524;28;20432;-76
2021/04/14 06:03:18;;;;;;;8.10;7.27;;;;;;;2.63;73.18;152040.25;5009236;28;20478;-76
2021/04/14 06:05:54;;;;;;;6.17;5.57;;;;;;;2.91;71.40;152112.34;5009351;28;20452;-76
2021/04/14 06:08:30;;;;;;;6.83;6.13;;;;;;;3.11;70.19;152162.47;5009167;28;20460;-77
2021/04/14 06:11:06;;;;;;;8.47;6.70;;;;;;;3.32;71.84;152216.53;4992413;28;21026;-77
2021/04/14 06:13:41;;;;;;;6.37;4.90;;;;;;;3.54;68.55;152273.19;5002078;28;20454;-77
2021/04/14 06:16:16;;;;;;;7.83;5.43;;;;;;;3.62;68.82;152295.06;5003019;28;20456;-77
2021/04/14 06:18:52;;;;;;;5.53;4.80;;;;;;;3.80;67.04;152338.81;4987935;28;20456;-77
2021/04/14 06:21:28;;;;;;;6.03;5.10;;;;;;;3.99;65.74;152389.06;5025028;28;20451;-77
2021/04/14 06:24:03;;;;;;;7.43;6.00;;;;;;;4.20;66.65;152443.16;5002614;28;20865;-77
2021/04/14 06:26:42;;;;;;;8.07;6.60;;;;;;;4.51;66.30;152521.69;4993925;28;20456;-77
2021/04/14 06:29:17;;;;;;;9.10;7.50;;;;;;;4.56;65.25;152534.59;5009523;28;20468;-77
2021/04/14 06:31:53;;;;;;;6.40;5.40;;;;;;;4.94;62.51;152631.22;5008950;28;20537;-77
2021/04/14 06:34:30;;;;;;;7.07;5.83;;;;;;;5.08;63.27;152666.03;4989575;28;20542;-78
2021/04/14 06:37:04;;;;;;;6.53;5.93;;;;;;;5.38;62.15;152743.34;4997701;28;20436;-77
2021/04/14 06:39:40;;;;;;;8.63;6.43;;;;;;;5.69;61.80;152823.34;4996004;28;20808;-78
2021/04/14 06:42:29;;;;;;;7.27;5.60;;;;;;;6.01;60.58;152904.66;4996970;28;20472;-77
2021/04/14 06:45:11;;;;;;;5.40;4.83;;;;;;;5.71;58.71;152828.47;5019916;28;20460;-77
2021/04/14 06:48:06;;;;;;;6.30;5.47;;;;;;;6.08;58.02;152923.97;5002930;28;20444;-77
2021/04/14 06:50:44;;;;;;;5.70;4.17;;;;;;;6.10;57.41;152929.13;4997698;28;20458;-78
2021/04/14 06:53:27;;;;;;;6.07;5.23;;;;;;;6.35;59.78;152991.06;5009717;28;20545;-79
2021/04/14 06:56:06;;;;;;;6.20;5.60;;;;;;;6.11;58.06;152931.72;4991826;28;20487;-79
2021/04/14 06:58:43;;;;;;;9.83;7.87;;;;;;;6.44;60.07;153014.28;5015478;28;20480;-79
2021/04/14 07:01:22;;;;;;;7.93;7.23;;;;;;;6.14;59.02;152939.44;5029933;28;20460;-79
2021/04/14 07:04:02;;;;;;;10.27;7.33;;;;;;;5.94;61.19;152886.56;5012935;28;20465;-79
2021/04/14 07:06:41;;;;;;;8.40;7.50;;;;;;;5.56;60.49;152789.75;5015482;28;20433;-79
2021/04/14 07:09:22;;;;;;;9.27;8.07;;;;;;;5.61;60.98;152802.72;5014797;28;21052;-78
2021/04/14 07:11:57;;;;;;;9.20;7.83;;;;;;;5.59;60.46;152797.50;5029891;28;20451;-79
2021/04/14 07:14:33;;;;;;;9.23;8.37;;;;;;;5.73;61.04;152832.34;5029985;28;21120;-79
2021/04/14 07:17:15;;;;;;;9.77;8.70;;;;;;;5.58;60.58;152794.97;5015939;28;20535;-79
2021/04/14 07:20:10;;;;;;;18.13;9.87;;;;;;;5.70;61.03;152825.88;5034048;28;20546;-79
2021/04/14 07:23:00;;;;;;;11.13;8.30;;;;;;;5.48;60.97;152769.19;5051684;28;20464;-78
2021/04/14 07:25:39;;;;;;;8.70;7.70;;;;;;;5.71;60.84;152828.47;5019009;28;20445;-78
2021/04/14 07:28:24;;;;;;;12.40;8.73;;;;;;;5.60;62.13;152798.81;5021063;28;20456;-79
2021/04/14 07:31:04;;;;;;;9.60;8.43;;;;;;;5.57;60.96;152791.06;5019676;28;20447;-79
2021/04/14 07:34:06;;;;;;;10.70;9.20;;;;;;;5.37;61.51;152740.81;4999986;28;20429;-78
2021/04/14 07:36:48;;;;;;;10.40;8.43;;;;;;;5.32;61.07;152727.91;5017011;28;20803;-78
2021/04/14 07:39:31;;;;;;;10.37;8.60;;;;;;;5.44;60.80;152758.84;5031588;28;20447;-78
2021/04/14 07:42:22;;;;;;;14.27;9.27;;;;;;;5.41;62.02;152751.09;5031400;28;20451;-78
2021/04/14 07:45:14;;;;;;;9.40;7.10;;;;;;;5.43;60.74;152756.25;5031010;28;20543;-78
2021/04/14 07:47:52;;;;;;;8.43;6.60;;;;;;;5.06;61.50;152660.84;5028293;28;20790;-78
2021/04/14 07:50:32;;;;;;;6.00;5.17;;;;;;;4.68;61.58;152565.53;5019629;28;20459;-78
2021/04/14 07:53:19;;;;;;;7.07;5.63;;;;;;;4.69;61.92;152566.78;5016553;28;20451;-78
2021/04/14 07:56:06;;;;;;;6.43;5.37;;;;;;;5.33;61.38;152730.47;5032785;28;20451;-79
2021/04/14 07:58:43;;;;;;;4.93;4.40;;;;;;;5.85;59.34;152864.63;5011633;28;20475;-79
2021/04/14 08:01:20;;;;;;;6.67;5.50;;;;;;;6.19;58.30;152949.78;5024283;28;20786;-78
2021/04/14 08:04:10;;;;;;;8.70;5.27;;;;;;;6.22;57.49;152958.81;5023195;28;20565;-78
2021/04/14 08:06:45;;;;;;;6.90;5.87;;;;;;;6.51;58.58;153032.38;5023946;27;20460;-79
2021/04/14 08:09:22;;;;;;;6.57;5.70;;;;;;;6.88;58.54;153126.59;5016507;28;20447;-79
2021/04/14 08:12:05;;;;;;;6.90;5.47;;;;;;;7.51;56.33;153289.28;5030041;28;20445;-79
2021/04/14 08:14:42;;;;;;;7.13;6.40;;;;;;;7.46;54.55;153275.06;5018628;28;20457;-79
2021/04/14 08:17:21;;;;;;;8.03;5.43;;;;;;;7.33;55.35;153242.78;5001946;28;20858;-79
2021/04/14 08:19:58;;;;;;;7.73;5.30;;;;;;;7.42;54.90;153264.69;5002346;28;20465;-79
2021/04/14 08:22:34;;;;;;;5.53;5.03;;;;;;;7.79;53.74;153360.28;4998819;28;20475;-79
2021/04/14 08:25:10;;;;;;;8.23;4.67;;;;;;;8.09;52.85;153437.81;5048213;28;20447;-79
2021/04/14 08:27:50;;;;;;;6.37;5.40;;;;;;;8.53;53.45;153551.59;5021519;28;20454;-79
2021/04/14 08:30:26;;;;;;;9.67;5.27;;;;;;;8.45;52.87;153530.91;5017768;28;20451;-79
2021/04/14 08:33:03;;;;;;;6.40;5.37;;;;;;;8.78;52.09;153613.66;5017005;28;20482;-79
2021/04/14 08:35:40;;;;;;;6.17;5.57;;;;;;;8.26;51.57;153481.75;5016139;28;20463;-79
2021/04/14 08:38:17;;;;;;;8.50;5.20;;;;;;;7.33;54.21;153242.78;5016858;28;20452;-78
2021/04/14 08:40:54;;;;;;;6.43;5.23;;;;;;;7.56;53.38;153302.19;5018223;28;20459;-78
2021/04/14 08:43:34;;;;;;;5.43;4.70;;;;;;;7.26;53.65;153224.66;5015096;28;20827;-79
2021/04/14 08:46:11;;;;;;;6.27;5.67;;;;;;;7.39;53.56;153257.00;5030067;28;20455;-79
2021/04/14 08:48:51;;;;;;;6.17;5.63;;;;;;;7.60;54.10;153312.50;5032566;28;20822;-79
2021/04/14 08:51:26;;;;;;;6.53;4.83;;;;;;;6.98;55.16;153153.69;5016765;28;20504;-79
2021/04/14 08:54:01;;;;;;;6.90;5.73;;;;;;;6.91;55.86;153135.59;5031198;28;20459;-79
2021/04/14 08:56:36;;;;;;;6.80;6.20;;;;;;;7.52;56.62;153291.81;5033521;28;20446;-79
2021/04/14 08:59:13;;;;;;;7.57;5.17;;;;;;;7.52;53.10;153291.81;5027371;28;20486;-79
2021/04/14 09:01:49;;;;;;;6.63;4.60;;;;;;;7.42;54.20;153266.00;5015082;28;20451;-78
2021/04/14 09:04:25;;;;;;;5.67;4.50;;;;;;;7.28;54.50;153231.13;5022816;28;20441;-78
2021/04/14 09:07:00;;;;;;;7.33;4.40;;;;;;;7.07;54.42;153176.91;5032044;28;20458;-78
2021/04/14 09:09:44;;;;;;;6.30;4.67;;;;;;;7.48;54.47;153281.50;5036720;27;20540;-78
2021/04/14 09:12:31;;;;;;;5.47;4.97;;;;;;;8.37;52.21;153508.94;5024756;28;20932;-78
2021/04/14 09:15:09;;;;;;;5.90;5.27;;;;;;;7.80;51.84;153364.19;4998065;28;20451;-78
2021/04/14 09:17:56;;;;;;;5.60;5.00;;;;;;;7.15;53.23;153196.25;5024676;28;20448;-78
2021/04/14 09:20:34;;;;;;;7.00;4.93;;;;;;;7.00;53.99;153158.84;5019881;28;20519;-78
2021/04/14 09:23:12;;;;;;;4.90;4.00;;;;;;;7.01;52.58;153161.44;5026077;28;20477;-78
2021/04/14 09:25:50;;;;;;;5.67;4.70;;;;;;;7.49;52.06;153282.81;5016795;28;20454;-78
2021/04/14 09:28:27;;;;;;;7.10;4.90;;;;;;;7.30;52.05;153235.03;5023760;28;20458;-78
2021/04/14 09:31:09;;;;;;;4.87;4.47;;;;;;;7.21;53.07;153211.78;5042262;28;20480;-78
2021/04/14 09:33:47;;;;;;;5.20;4.23;;;;;;;7.30;53.81;153236.34;5012012;28;20827;-78
2021/04/14 09:36:31;;;;;;;5.53;4.33;;;;;;;7.13;53.72;153192.41;5014349;28;20455;-78
2021/04/14 09:39:10;;;;;;;7.53;5.37;;;;;;;6.97;54.48;153151.09;5040349;28;20454;-78
2021/04/14 09:41:45;;;;;;;8.83;4.63;;;;;;;7.04;52.49;153169.16;5013417;28;20532;-78
2021/04/14 09:44:40;;;;;;;6.17;4.17;;;;;;;6.59;51.18;153054.28;5025877;28;20571;-78
2021/04/14 09:47:33;;;;;;;4.73;4.17;;;;;;;6.55;50.53;153042.66;5027157;28;20955;-78
2021/04/14 09:50:23;;;;;;;5.37;4.20;;;;;;;6.51;51.68;153032.38;5022335;28;20456;-78
2021/04/14 09:53:00;;;;;;;4.68;4.15;;;;;;;6.66;51.18;153072.38;5028129;28;20436;-79
2021/04/14 09:55:43;;;;;;;4.53;3.80;;;;;;;6.95;49.69;153145.94;5032036;28;20204;-78
2021/04/14 09:58:26;;;;;;;5.50;3.37;;;;;;;6.93;49.96;153139.47;5016416;28;21260;-78
2021/04/14 10:01:12;;;;;;;4.50;3.50;;;;;;;7.61;48.17;153313.78;5020100;28;20894;-78
2021/04/14 10:03:49;;;;;;;3.63;3.30;;;;;;;7.62;49.60;153317.69;5024189;28;20460;-78
2021/04/14 10:06:24;;;;;;;5.10;3.77;;;;;;;7.63;51.86;153318.94;5001156;28;20464;-79
2021/04/14 10:09:00;;;;;;;4.53;3.70;;;;;;;7.68;50.26;153331.84;5026581;28;20840;-79
2021/04/14 10:11:38;;;;;;;3.77;3.43;;;;;;;7.40;48.94;153259.53;5025185;28;20454;-78
2021/04/14 10:14:15;;;;;;;3.53;2.97;;;;;;;7.31;45.60;153238.88;5025887;28;20861;-78
2021/04/14 10:16:52;;;;;;;5.00;3.70;;;;;;;7.07;46.34;153175.66;5013442;28;20949;-78
2021/04/14 10:19:30;;;;;;;6.00;3.30;;;;;;;7.36;50.68;153250.50;5006962;28;20450;-78
2021/04/14 10:22:09;;;;;;;4.47;4.03;;;;;;;7.17;48.10;153202.75;5003509;28;20458;-79
2021/04/14 10:24:46;;;;;;;4.67;4.20;;;;;;;7.45;48.38;153272.47;5028293;28;20916;-79
2021/04/14 10:27:21;;;;;;;3.77;3.43;;;;;;;6.94;47.18;153142.03;5031094;28;20452;-79
2021/04/14 10:30:00;;;;;;;6.53;3.90;;;;;;;6.69;49.42;153078.81;5031615;28;20481;-78
2021/04/14 10:32:35;;;;;;;3.67;3.23;;;;;;;6.56;49.61;153045.25;5024149;28;20444;-79
2021/04/14 10:35:19;;;;;;;6.70;4.23;;;;;;;6.47;50.44;153022.00;4996629;28;20463;-78
2021/04/14 10:37:57;;;;;;;3.93;3.53;;;;;;;6.37;53.12;152996.22;5023464;28;20444;-79
2021/04/14 10:40:36;;;;;;;5.60;4.20;;;;;;;5.46;57.96;152764.00;5016348;28;20797;-78
2021/04/14 10:43:13;;;;;;;4.40;3.80;;;;;;;5.48;59.28;152770.44;5030895;28;20499;-78
2021/04/14 10:45:55;;;;;;;4.20;3.90;;;;;;;5.17;59.12;152690.50;5030216;28;20463;-78
2021/04/14 10:48:31;;;;;;;5.53;4.33;;;;;;;5.08;59.48;152666.03;5013124;28;20448;-78
2021/04/14 10:51:13;;;;;;;3.67;3.37;;;;;;;4.91;59.92;152623.50;5026540;28;20495;-78
2021/04/14 10:53:51;;;;;;;5.23;3.83;;;;;;;4.96;59.62;152636.38;5021035;28;20448;-78
2021/04/14 10:56:27;;;;;;;4.70;4.07;;;;;;;5.03;59.45;152654.41;5018508;28;20460;-78
2021/04/14 10:59:07;;;;;;;5.70;3.87;;;;;;;5.13;56.85;152678.94;5028051;28;20498;-79
2021/04/14 11:01:43;;;;;;;4.13;3.80;;;;;;;5.24;57.03;152707.28;5012334;28;20455;-78
2021/04/14 11:04:32;;;;;;;4.90;4.10;;;;;;;5.55;57.58;152787.22;5027819;28;20474;-78
2021/04/14 11:07:11;;;;;;;6.78;4.40;;;;;;;5.59;55.62;152797.50;5029413;28;20907;-78
2021/04/14 11:09:47;;;;;;;10.10;4.30;;;;;;;5.69;52.84;152823.34;5013765;28;20680;-79
2021/04/14 11:12:24;;;;;;;4.20;3.80;;;;;;;5.74;54.10;152836.22;5034753;28;20446;-79
2021/04/14 11:15:03;;;;;;;4.80;3.90;;;;;;;5.79;53.92;152849.13;5028733;28;20870;-78
2021/04/14 11:17:38;;;;;;;4.30;3.90;;;;;;;5.76;54.17;152841.38;5020256;28;20547;-78
2021/04/14 11:20:15;;;;;;;4.20;3.80;;;;;;;5.87;53.66;152868.50;5041937;27;20821;-78
2021/04/14 11:22:53;;;;;;;4.70;3.77;;;;;;;5.96;55.20;152891.69;5028456;28;20550;-78
2021/04/14 11:25:31;;;;;;;3.77;3.47;;;;;;;6.06;54.10;152918.78;5021943;28;20466;-78
2021/04/14 11:28:08;;;;;;;3.60;3.30;;;;;;;6.34;52.31;152988.47;5015566;28;20435;-78
2021/04/14 11:30:50;;;;;;;6.37;3.60;;;;;;;6.80;49.42;153107.22;5018682;28;20961;-79
2021/04/14 11:33:34;;;;;;;4.23;3.83;;;;;;;6.65;48.88;153068.47;5017925;28;21117;-79
2021/04/14 11:36:19;;;;;;;4.53;4.13;;;;;;;6.66;49.23;153071.06;5025818;28;20460;-78
2021/04/14 11:39:02;;;;;;;5.07;3.67;;;;;;;6.96;49.31;153148.53;5029382;28;20838;-79
2021/04/14 11:41:39;;;;;;;4.10;3.70;;;;;;;7.22;47.11;153214.38;5027573;28;20769;-79
2021/04/14 11:44:16;;;;;;;4.23;3.90;;;;;;;6.97;46.32;153151.09;5051844;28;20464;-79
2021/04/14 11:46:56;;;;;;;4.73;3.93;;;;;;;6.94;51.41;153143.34;5019321;28;20464;-79
2021/04/14 11:49:33;;;;;;;7.10;4.10;;;;;;;7.21;46.59;153213.06;5018356;28;20536;-79
2021/04/14 11:52:16;;;;;;;4.20;3.40;;;;;;;7.12;46.09;153188.56;5030496;28;20455;-78
2021/04/14 11:54:53;;;;;;;4.50;3.63;;;;;;;7.14;45.84;153195.00;5034214;28;20460;-79
2021/04/14 11:57:30;;;;;;;6.03;3.87;;;;;;;7.34;46.15;153246.63;5030055;28;20477;-79
2021/04/14 12:00:23;;;;;;;6.70;3.80;;;;;;;7.14;46.64;153195.00;5023925;28;20477;-78
2021/04/14 12:03:01;;;;;;;4.90;3.30;;;;;;;7.35;45.71;153249.25;5011370;27;20568;-79
2021/04/14 12:05:36;;;;;;;3.83;3.30;;;;;;;7.56;46.85;153302.19;5031451;28;20455;-79
2021/04/14 12:08:11;;;;;;;3.70;3.40;;;;;;;7.17;44.79;153202.75;5013645;28;20445;-78
2021/04/14 12:10:48;;;;;;;6.67;3.80;;;;;;;7.02;44.85;153164.00;5006412;28;20453;-78
2021/04/14 12:13:24;;;;;;;5.97;3.67;;;;;;;6.78;45.02;153100.78;5014051;28;20474;-79
2021/04/14 12:15:59;;;;;;;4.40;4.00;;;;;;;6.72;46.38;153086.56;5030554;28;20554;-78
2021/04/14 12:18:34;;;;;;;4.30;3.60;;;;;;;6.73;47.44;153089.13;5015551;28;20468;-79
2021/04/14 12:21:10;;;;;;;4.47;3.70;;;;;;;6.76;46.94;153096.88;5029440;28;20444;-78